METAR Data
IDs: Format: Raw Decoded Include TAF

Data at: 0108 UTC 06 Dec 2019

KCAE 060056Z 21003KT 10SM CLR 06/01 A3017 RMK AO2 SLP217 T00610006
KCAE 052356Z 00000KT 10SM FEW200 09/02 A3016 RMK AO2 SLP212 T00890017 10183 20089 53020
KCAE 052256Z 00000KT 10SM FEW200 11/02 A3013 RMK AO2 SLP204 T01110017
KCAE 052156Z 27003KT 10SM CLR 16/M03 A3011 RMK AO2 SLP196 FU SE T01611028
KCAE 052056Z 28004KT 10SM CLR 18/M03 A3010 RMK AO2 SLP191 T01781033 53002
KCAE 051956Z 00000KT 10SM CLR 18/M03 A3008 RMK AO2 SLP186 T01831033
KCAE 051856Z 00000KT 10SM CLR 18/M03 A3009 RMK AO2 SLP186 T01781028
KCAE 051756Z 00000KT 10SM CLR 17/M04 A3009 RMK AO2 SLP189 T01671039 10178 20044 58002
KCAE 051656Z 30006KT 10SM FEW180 17/M03 A3011 RMK AO2 SLP194 T01671033
KCAE 051556Z VRB05KT 10SM FEW180 16/M04 A3012 RMK AO2 SLP199 T01561039
KCAE 051456Z 32005KT 10SM FEW180 14/00 A3010 RMK AO2 SLP191 T01390000 53029
KCAE 051356Z 27005KT 10SM FEW180 09/00 A3006 RMK AO2 SLP180 T00940000
KCAE 051256Z 26006KT 10SM BKN150 07/00 A3004 RMK AO2 SLP172 T00670000
KCAE 051156Z 25005KT 10SM SCT150 06/M01 A3001 RMK AO2 SLP163 T00561006 10089 20044 53027
KCAE 051056Z 26007KT 10SM SCT200 06/M01 A2999 RMK AO2 SLP154 T00561011
KCAE 050956Z 29006KT 10SM SCT200 07/M01 A2995 RMK AO2 SLP142 T00671011
KCAE 050856Z 24004KT 10SM SCT200 08/M01 A2993 RMK AO2 SLP134 T00831011 53016
KCAE 050756Z 24007KT 10SM SCT200 08/M01 A2990 RMK AO2 SLP123 T00831011
KCAE 050656Z 22004KT 10SM SCT200 07/M01 A2989 RMK AO2 SLP121 T00721006
KCAE 050556Z 26006KT 10SM SCT200 09/M01 A2988 RMK AO2 SLP118 T00891011 10117 20089 51009
KCAE 050456Z 26005KT 10SM SCT200 09/M01 A2988 RMK AO2 SLP116 T00941011 401670017
KCAE 050356Z 26008KT 10SM SCT200 09/M01 A2987 RMK AO2 SLP114 T00941011
KCAE 050256Z 24006KT 10SM SCT200 11/M02 A2986 RMK AO2 SLP110 T01111017 51014
KCAE 050156Z 26007KT 10SM SCT200 11/M01 A2985 RMK AO2 SLP106 T01061006
KCAE 050056Z 24008KT 10SM SCT200 11/00 A2983 RMK AO2 SLP101 T01110000
KCAE 042356Z 24006KT 10SM FEW200 11/00 A2982 RMK AO2 SLP096 ACFT MSHP RWY 29 12/3 @1805 T01110000 10167 20089 53015
KCAE 042256Z COR 25006KT 10SM FEW200 12/M01 A2980 RMK AO2 SLP090 T01171006 ACFT MSHP RWY 29 @1805
KCAE 042156Z 26010KT 10SM FEW200 14/M01 A2978 RMK AO2 SLP084 T01441011
KCAE 042056Z 27011G22KT 10SM FEW250 16/M01 A2977 RMK AO2 SLP081 T01611006 55002
KCAE 041956Z 28015KT 10SM CLR 16/M01 A2976 RMK AO2 SLP076 T01611006
KCAE 041856Z 25010KT 10SM CLR 16/M01 A2976 RMK AO2 SLP078 T01611006
KCAE 041756Z 27012KT 10SM CLR 15/M02 A2978 RMK AO2 SLP083 T01501017 10150 20017 58025
KCAE 041656Z VRB05KT 10SM CLR 13/M03 A2980 RMK AO2 SLP092 T01281028
KCAE 041556Z 26006KT 10SM CLR 12/M02 A2985 RMK AO2 SLP107 T01221022
KCAE 041456Z 28007KT 10SM CLR 09/M02 A2985 RMK AO2 SLP108 T00941022 51015
KCAE 041356Z 27009KT 10SM CLR 07/M02 A2985 RMK AO2 SLP107 T00671022